sensor_id;sensor_type;location;lat;lon;timestamp;temperature;humidity
13409;DHT22;6775;49.574;11.170;2022-10-04T00:02:27;6.80;99.90
13409;DHT22;6775;49.574;11.170;2022-10-04T00:05:03;6.90;99.90
13409;DHT22;6775;49.574;11.170;2022-10-04T00:07:35;6.90;99.90
13409;DHT22;6775;49.574;11.170;2022-10-04T00:10:13;6.90;99.90
13409;DHT22;6775;49.574;11.170;2022-10-04T00:12:46;6.90;99.90
13409;DHT22;6775;49.574;11.170;2022-10-04T00:15:22;6.90;99.90
13409;DHT22;6775;49.574;11.170;2022-10-04T00:18:17;6.80;99.90
13409;DHT22;6775;49.574;11.170;2022-10-04T00:20:58;6.70;99.90
13409;DHT22;6775;49.574;11.170;2022-10-04T00:23:39;6.70;99.90
13409;DHT22;6775;49.574;11.170;2022-10-04T00:26:14;6.70;99.90
13409;DHT22;6775;49.574;11.170;2022-10-04T00:29:22;6.60;99.90
13409;DHT22;6775;49.574;11.170;2022-10-04T00:32:24;6.60;99.90
13409;DHT22;6775;49.574;11.170;2022-10-04T00:34:52;6.60;99.90
13409;DHT22;6775;49.574;11.170;2022-10-04T00:37:22;6.60;99.90
13409;DHT22;6775;49.574;11.170;2022-10-04T00:39:59;6.50;99.90
13409;DHT22;6775;49.574;11.170;2022-10-04T00:42:44;6.40;99.90
13409;DHT22;6775;49.574;11.170;2022-10-04T00:45:23;6.30;99.90
13409;DHT22;6775;49.574;11.170;2022-10-04T00:48:26;6.20;99.90
13409;DHT22;6775;49.574;11.170;2022-10-04T00:51:01;6.20;99.90
13409;DHT22;6775;49.574;11.170;2022-10-04T00:53:57;6.10;99.90
13409;DHT22;6775;49.574;11.170;2022-10-04T00:56:33;6.00;99.90
13409;DHT22;6775;49.574;11.170;2022-10-04T00:59:19;5.90;99.90
13409;DHT22;6775;49.574;11.170;2022-10-04T01:01:51;5.90;99.90
13409;DHT22;6775;49.574;11.170;2022-10-04T01:04:27;6.00;99.90
13409;DHT22;6775;49.574;11.170;2022-10-04T01:06:58;6.00;99.90
13409;DHT22;6775;49.574;11.170;2022-10-04T01:09:27;6.10;99.90
13409;DHT22;6775;49.574;11.170;2022-10-04T01:12:00;6.00;99.90
13409;DHT22;6775;49.574;11.170;2022-10-04T01:14:37;6.10;99.90
13409;DHT22;6775;49.574;11.170;2022-10-04T01:17:07;6.10;99.90
13409;DHT22;6775;49.574;11.170;2022-10-04T01:19:37;6.00;99.90
13409;DHT22;6775;49.574;11.170;2022-10-04T01:22:13;6.00;99.90
13409;DHT22;6775;49.574;11.170;2022-10-04T01:24:43;5.90;99.90
13409;DHT22;6775;49.574;11.170;2022-10-04T01:27:31;5.80;99.90
13409;DHT22;6775;49.574;11.170;2022-10-04T01:30:03;5.70;99.90
13409;DHT22;6775;49.574;11.170;2022-10-04T01:32:35;5.70;99.90
13409;DHT22;6775;49.574;11.170;2022-10-04T01:35:06;5.70;99.90
13409;DHT22;6775;49.574;11.170;2022-10-04T01:37:35;5.70;99.90
13409;DHT22;6775;49.574;11.170;2022-10-04T01:40:07;5.70;99.90
13409;DHT22;6775;49.574;11.170;2022-10-04T01:42:40;5.60;99.90
13409;DHT22;6775;49.574;11.170;2022-10-04T01:45:14;5.70;99.90
13409;DHT22;6775;49.574;11.170;2022-10-04T01:47:48;5.70;99.90
13409;DHT22;6775;49.574;11.170;2022-10-04T01:50:23;5.70;99.90
13409;DHT22;6775;49.574;11.170;2022-10-04T01:52:55;5.80;99.90
13409;DHT22;6775;49.574;11.170;2022-10-04T01:55:31;5.80;99.90
13409;DHT22;6775;49.574;11.170;2022-10-04T01:58:05;5.90;99.90
13409;DHT22;6775;49.574;11.170;2022-10-04T02:00:36;5.90;99.90
13409;DHT22;6775;49.574;11.170;2022-10-04T02:03:11;5.90;99.90
13409;DHT22;6775;49.574;11.170;2022-10-04T02:05:43;5.90;99.90
13409;DHT22;6775;49.574;11.170;2022-10-04T02:08:15;5.90;99.90
13409;DHT22;6775;49.574;11.170;2022-10-04T02:10:48;5.80;99.90
13409;DHT22;6775;49.574;11.170;2022-10-04T02:13:17;5.80;99.90
13409;DHT22;6775;49.574;11.170;2022-10-04T02:15:45;5.80;99.90
13409;DHT22;6775;49.574;11.170;2022-10-04T02:18:16;5.70;99.90
13409;DHT22;6775;49.574;11.170;2022-10-04T02:20:46;5.70;99.90
13409;DHT22;6775;49.574;11.170;2022-10-04T02:23:17;5.70;99.90
13409;DHT22;6775;49.574;11.170;2022-10-04T02:25:46;5.70;99.90
13409;DHT22;6775;49.574;11.170;2022-10-04T02:28:15;5.60;99.90
13409;DHT22;6775;49.574;11.170;2022-10-04T02:30:47;5.60;99.90
13409;DHT22;6775;49.574;11.170;2022-10-04T02:33:39;5.60;99.90
13409;DHT22;6775;49.574;11.170;2022-10-04T02:36:07;5.50;99.90
13409;DHT22;6775;49.574;11.170;2022-10-04T02:38:39;5.40;99.90
13409;DHT22;6775;49.574;11.170;2022-10-04T02:41:15;5.40;99.90
13409;DHT22;6775;49.574;11.170;2022-10-04T02:43:50;5.30;99.90
13409;DHT22;6775;49.574;11.170;2022-10-04T02:46:24;5.30;99.90
13409;DHT22;6775;49.574;11.170;2022-10-04T02:48:56;5.30;99.90
13409;DHT22;6775;49.574;11.170;2022-10-04T02:51:27;5.30;99.90
13409;DHT22;6775;49.574;11.170;2022-10-04T02:54:02;5.30;99.90
13409;DHT22;6775;49.574;11.170;2022-10-04T02:56:34;5.30;99.90
13409;DHT22;6775;49.574;11.170;2022-10-04T02:59:04;5.40;99.90
13409;DHT22;6775;49.574;11.170;2022-10-04T03:01:40;5.50;99.90
13409;DHT22;6775;49.574;11.170;2022-10-04T03:04:11;5.50;99.90
13409;DHT22;6775;49.574;11.170;2022-10-04T03:06:41;5.60;99.90
13409;DHT22;6775;49.574;11.170;2022-10-04T03:09:10;5.60;99.90
13409;DHT22;6775;49.574;11.170;2022-10-04T03:11:40;5.60;99.90
13409;DHT22;6775;49.574;11.170;2022-10-04T03:14:12;5.60;99.90
13409;DHT22;6775;49.574;11.170;2022-10-04T03:16:43;5.60;99.90
13409;DHT22;6775;49.574;11.170;2022-10-04T03:19:13;5.60;99.90
13409;DHT22;6775;49.574;11.170;2022-10-04T03:21:43;5.60;99.90
13409;DHT22;6775;49.574;11.170;2022-10-04T03:24:16;5.60;99.90
13409;DHT22;6775;49.574;11.170;2022-10-04T03:26:49;5.60;99.90
13409;DHT22;6775;49.574;11.170;2022-10-04T03:29:18;5.60;99.90
13409;DHT22;6775;49.574;11.170;2022-10-04T03:31:50;5.60;99.90
13409;DHT22;6775;49.574;11.170;2022-10-04T03:34:21;5.70;99.90
13409;DHT22;6775;49.574;11.170;2022-10-04T03:36:51;5.60;99.90
13409;DHT22;6775;49.574;11.170;2022-10-04T03:39:27;5.70;99.90
13409;DHT22;6775;49.574;11.170;2022-10-04T03:41:56;5.70;99.90
13409;DHT22;6775;49.574;11.170;2022-10-04T03:44:24;5.70;99.90
13409;DHT22;6775;49.574;11.170;2022-10-04T03:46:52;5.60;99.90
13409;DHT22;6775;49.574;11.170;2022-10-04T03:49:35;5.60;99.90
13409;DHT22;6775;49.574;11.170;2022-10-04T03:52:04;5.50;99.90
13409;DHT22;6775;49.574;11.170;2022-10-04T03:54:34;5.50;99.90
13409;DHT22;6775;49.574;11.170;2022-10-04T03:57:05;5.40;99.90
13409;DHT22;6775;49.574;11.170;2022-10-04T03:59:34;5.40;99.90
13409;DHT22;6775;49.574;11.170;2022-10-04T04:02:05;5.50;99.90
13409;DHT22;6775;49.574;11.170;2022-10-04T04:04:42;5.50;99.90
13409;DHT22;6775;49.574;11.170;2022-10-04T04:07:19;5.50;99.90
13409;DHT22;6775;49.574;11.170;2022-10-04T04:09:52;5.60;99.90
13409;DHT22;6775;49.574;11.170;2022-10-04T04:12:34;5.60;99.90
13409;DHT22;6775;49.574;11.170;2022-10-04T04:15:07;5.60;99.90
13409;DHT22;6775;49.574;11.170;2022-10-04T04:17:39;5.60;99.90
13409;DHT22;6775;49.574;11.170;2022-10-04T04:20:19;5.70;99.90
13409;DHT22;6775;49.574;11.170;2022-10-04T04:22:55;5.70;99.90
13409;DHT22;6775;49.574;11.170;2022-10-04T04:25:24;5.70;99.90
13409;DHT22;6775;49.574;11.170;2022-10-04T04:28:00;5.70;99.90
13409;DHT22;6775;49.574;11.170;2022-10-04T04:30:31;5.70;99.90
13409;DHT22;6775;49.574;11.170;2022-10-04T04:33:07;5.70;99.90
13409;DHT22;6775;49.574;11.170;2022-10-04T04:35:36;5.80;99.90
13409;DHT22;6775;49.574;11.170;2022-10-04T04:38:12;5.80;99.90
13409;DHT22;6775;49.574;11.170;2022-10-04T04:40:41;5.90;99.90
13409;DHT22;6775;49.574;11.170;2022-10-04T04:43:13;6.00;99.90
13409;DHT22;6775;49.574;11.170;2022-10-04T04:45:44;6.00;99.90
13409;DHT22;6775;49.574;11.170;2022-10-04T04:48:35;6.10;99.90
13409;DHT22;6775;49.574;11.170;2022-10-04T04:51:04;6.10;99.90
13409;DHT22;6775;49.574;11.170;2022-10-04T04:53:32;6.20;99.90
13409;DHT22;6775;49.574;11.170;2022-10-04T04:56:01;6.20;99.90
13409;DHT22;6775;49.574;11.170;2022-10-04T04:58:34;6.20;99.90
13409;DHT22;6775;49.574;11.170;2022-10-04T05:01:04;6.30;99.90
13409;DHT22;6775;49.574;11.170;2022-10-04T05:03:33;6.30;99.90
13409;DHT22;6775;49.574;11.170;2022-10-04T05:06:01;6.30;99.90
13409;DHT22;6775;49.574;11.170;2022-10-04T05:08:31;6.20;99.90
13409;DHT22;6775;49.574;11.170;2022-10-04T05:11:12;6.20;99.90
13409;DHT22;6775;49.574;11.170;2022-10-04T05:13:44;6.20;99.90
13409;DHT22;6775;49.574;11.170;2022-10-04T05:16:17;6.20;99.90
13409;DHT22;6775;49.574;11.170;2022-10-04T05:18:46;6.20;99.90
13409;DHT22;6775;49.574;11.170;2022-10-04T05:21:21;6.30;99.90
13409;DHT22;6775;49.574;11.170;2022-10-04T05:23:50;6.30;99.90
13409;DHT22;6775;49.574;11.170;2022-10-04T05:26:24;6.40;99.90
13409;DHT22;6775;49.574;11.170;2022-10-04T05:28:57;6.40;99.90
13409;DHT22;6775;49.574;11.170;2022-10-04T05:31:34;6.40;99.90
13409;DHT22;6775;49.574;11.170;2022-10-04T05:34:14;6.50;99.90
13409;DHT22;6775;49.574;11.170;2022-10-04T05:37:05;6.50;99.90
13409;DHT22;6775;49.574;11.170;2022-10-04T05:39:40;6.60;99.90
13409;DHT22;6775;49.574;11.170;2022-10-04T05:42:15;6.60;99.90
13409;DHT22;6775;49.574;11.170;2022-10-04T05:44:50;6.60;99.90
13409;DHT22;6775;49.574;11.170;2022-10-04T05:47:19;6.70;99.90
13409;DHT22;6775;49.574;11.170;2022-10-04T05:49:51;6.70;99.90
13409;DHT22;6775;49.574;11.170;2022-10-04T05:52:28;6.70;99.90
13409;DHT22;6775;49.574;11.170;2022-10-04T05:55:20;6.80;99.90
13409;DHT22;6775;49.574;11.170;2022-10-04T06:01:04;6.80;99.90
13409;DHT22;6775;49.574;11.170;2022-10-04T06:03:48;6.90;99.90
13409;DHT22;6775;49.574;11.170;2022-10-04T06:06:26;6.90;99.90
13409;DHT22;6775;49.574;11.170;2022-10-04T06:09:01;6.80;99.90
13409;DHT22;6775;49.574;11.170;2022-10-04T06:11:43;6.90;99.90
13409;DHT22;6775;49.574;11.170;2022-10-04T06:14:31;6.90;99.90
13409;DHT22;6775;49.574;11.170;2022-10-04T06:17:18;6.90;99.90
13409;DHT22;6775;49.574;11.170;2022-10-04T06:20:03;6.90;99.90
13409;DHT22;6775;49.574;11.170;2022-10-04T06:22:42;6.90;99.90
13409;DHT22;6775;49.574;11.170;2022-10-04T06:25:13;6.90;99.90
13409;DHT22;6775;49.574;11.170;2022-10-04T06:27:46;7.00;99.90
13409;DHT22;6775;49.574;11.170;2022-10-04T06:30:17;7.00;99.90
13409;DHT22;6775;49.574;11.170;2022-10-04T06:33:11;7.10;99.90
13409;DHT22;6775;49.574;11.170;2022-10-04T06:36:00;7.10;99.90
13409;DHT22;6775;49.574;11.170;2022-10-04T06:38:56;7.10;99.90
13409;DHT22;6775;49.574;11.170;2022-10-04T06:41:56;7.10;99.90
13409;DHT22;6775;49.574;11.170;2022-10-04T06:44:43;7.20;99.90
13409;DHT22;6775;49.574;11.170;2022-10-04T06:47:25;7.20;99.90
13409;DHT22;6775;49.574;11.170;2022-10-04T06:50:01;7.30;99.90
13409;DHT22;6775;49.574;11.170;2022-10-04T06:52:51;7.30;99.90
13409;DHT22;6775;49.574;11.170;2022-10-04T06:55:39;7.40;99.90
13409;DHT22;6775;49.574;11.170;2022-10-04T06:58:30;7.40;99.90
13409;DHT22;6775;49.574;11.170;2022-10-04T07:01:13;7.50;99.90
13409;DHT22;6775;49.574;11.170;2022-10-04T07:03:48;7.60;99.90
13409;DHT22;6775;49.574;11.170;2022-10-04T07:06:25;7.60;99.90
13409;DHT22;6775;49.574;11.170;2022-10-04T07:08:55;7.70;99.90
13409;DHT22;6775;49.574;11.170;2022-10-04T07:11:28;7.80;99.90
13409;DHT22;6775;49.574;11.170;2022-10-04T07:14:03;7.90;99.90
13409;DHT22;6775;49.574;11.170;2022-10-04T07:16:36;8.00;99.90
13409;DHT22;6775;49.574;11.170;2022-10-04T07:19:26;8.00;99.90
13409;DHT22;6775;49.574;11.170;2022-10-04T07:22:01;8.10;99.90
13409;DHT22;6775;49.574;11.170;2022-10-04T07:24:52;8.20;99.90
13409;DHT22;6775;49.574;11.170;2022-10-04T07:27:25;8.30;99.90
13409;DHT22;6775;49.574;11.170;2022-10-04T07:29:55;8.30;99.90
13409;DHT22;6775;49.574;11.170;2022-10-04T07:32:26;8.40;99.90
13409;DHT22;6775;49.574;11.170;2022-10-04T07:34:59;8.50;99.90
13409;DHT22;6775;49.574;11.170;2022-10-04T07:37:32;8.60;99.90
13409;DHT22;6775;49.574;11.170;2022-10-04T07:40:05;8.60;99.90
13409;DHT22;6775;49.574;11.170;2022-10-04T07:42:39;8.70;99.90
13409;DHT22;6775;49.574;11.170;2022-10-04T07:45:18;8.80;99.90
13409;DHT22;6775;49.574;11.170;2022-10-04T07:47:46;8.90;99.90
13409;DHT22;6775;49.574;11.170;2022-10-04T07:50:23;9.00;99.90
13409;DHT22;6775;49.574;11.170;2022-10-04T07:52:56;9.10;99.90
13409;DHT22;6775;49.574;11.170;2022-10-04T07:55:28;9.30;99.90
13409;DHT22;6775;49.574;11.170;2022-10-04T07:58:11;9.40;99.90
13409;DHT22;6775;49.574;11.170;2022-10-04T08:00:47;9.50;99.90
13409;DHT22;6775;49.574;11.170;2022-10-04T08:03:29;9.60;99.90
13409;DHT22;6775;49.574;11.170;2022-10-04T08:06:08;9.70;99.90
13409;DHT22;6775;49.574;11.170;2022-10-04T08:08:54;9.80;99.90
13409;DHT22;6775;49.574;11.170;2022-10-04T08:11:36;9.90;99.90
13409;DHT22;6775;49.574;11.170;2022-10-04T08:14:17;10.00;99.90
13409;DHT22;6775;49.574;11.170;2022-10-04T08:17:00;10.20;99.90
13409;DHT22;6775;49.574;11.170;2022-10-04T08:19:41;10.30;99.90
13409;DHT22;6775;49.574;11.170;2022-10-04T08:22:20;10.40;99.90
13409;DHT22;6775;49.574;11.170;2022-10-04T08:24:58;10.50;99.90
13409;DHT22;6775;49.574;11.170;2022-10-04T08:27:38;10.70;99.90
13409;DHT22;6775;49.574;11.170;2022-10-04T08:30:45;11.10;99.90
13409;DHT22;6775;49.574;11.170;2022-10-04T08:33:25;11.70;99.90
13409;DHT22;6775;49.574;11.170;2022-10-04T08:36:05;12.30;99.90
13409;DHT22;6775;49.574;11.170;2022-10-04T08:38:43;12.80;99.90
13409;DHT22;6775;49.574;11.170;2022-10-04T08:41:53;13.20;99.90
13409;DHT22;6775;49.574;11.170;2022-10-04T08:51:00;14.00;99.90
13409;DHT22;6775;49.574;11.170;2022-10-04T08:54:03;14.30;99.90
13409;DHT22;6775;49.574;11.170;2022-10-04T08:56:50;14.30;99.90
13409;DHT22;6775;49.574;11.170;2022-10-04T09:02:54;14.70;99.90
13409;DHT22;6775;49.574;11.170;2022-10-04T09:05:57;15.30;99.90
13409;DHT22;6775;49.574;11.170;2022-10-04T09:11:48;15.50;99.90
13409;DHT22;6775;49.574;11.170;2022-10-04T09:14:43;15.70;99.90
13409;DHT22;6775;49.574;11.170;2022-10-04T09:17:22;15.50;99.90
13409;DHT22;6775;49.574;11.170;2022-10-04T09:19:59;15.40;99.90
13409;DHT22;6775;49.574;11.170;2022-10-04T09:22:53;15.50;99.90
13409;DHT22;6775;49.574;11.170;2022-10-04T09:25:46;15.40;99.90
13409;DHT22;6775;49.574;11.170;2022-10-04T09:32:00;15.30;99.90
13409;DHT22;6775;49.574;11.170;2022-10-04T09:34:40;15.50;99.90
13409;DHT22;6775;49.574;11.170;2022-10-04T09:37:27;15.80;99.90
13409;DHT22;6775;49.574;11.170;2022-10-04T09:40:28;16.10;99.90
13409;DHT22;6775;49.574;11.170;2022-10-04T09:43:10;16.60;99.90
13409;DHT22;6775;49.574;11.170;2022-10-04T09:46:08;17.30;99.90
13409;DHT22;6775;49.574;11.170;2022-10-04T09:48:56;17.60;99.90
13409;DHT22;6775;49.574;11.170;2022-10-04T09:51:55;17.80;99.90
13409;DHT22;6775;49.574;11.170;2022-10-04T09:54:49;17.80;99.90
13409;DHT22;6775;49.574;11.170;2022-10-04T09:57:28;18.00;99.90
13409;DHT22;6775;49.574;11.170;2022-10-04T10:04:35;18.60;99.90
13409;DHT22;6775;49.574;11.170;2022-10-04T10:07:27;19.10;99.90
13409;DHT22;6775;49.574;11.170;2022-10-04T10:10:09;19.30;99.90
13409;DHT22;6775;49.574;11.170;2022-10-04T10:13:19;19.10;99.90
13409;DHT22;6775;49.574;11.170;2022-10-04T10:19:51;18.60;99.90
13409;DHT22;6775;49.574;11.170;2022-10-04T10:22:52;18.50;99.90
13409;DHT22;6775;49.574;11.170;2022-10-04T10:25:38;18.60;99.90
13409;DHT22;6775;49.574;11.170;2022-10-04T10:28:21;18.70;99.90
13409;DHT22;6775;49.574;11.170;2022-10-04T10:31:09;18.80;99.90
13409;DHT22;6775;49.574;11.170;2022-10-04T10:36:41;19.00;99.90
13409;DHT22;6775;49.574;11.170;2022-10-04T10:42:41;18.70;99.90
13409;DHT22;6775;49.574;11.170;2022-10-04T10:45:22;18.40;99.90
13409;DHT22;6775;49.574;11.170;2022-10-04T10:47:59;18.30;99.90
13409;DHT22;6775;49.574;11.170;2022-10-04T10:51:07;18.40;99.90
13409;DHT22;6775;49.574;11.170;2022-10-04T10:54:10;18.40;99.90
13409;DHT22;6775;49.574;11.170;2022-10-04T10:56:56;18.40;99.90
13409;DHT22;6775;49.574;11.170;2022-10-04T11:06:13;18.50;99.90
13409;DHT22;6775;49.574;11.170;2022-10-04T11:09:07;18.60;99.90
13409;DHT22;6775;49.574;11.170;2022-10-04T11:11:54;18.50;99.90
13409;DHT22;6775;49.574;11.170;2022-10-04T11:14:43;18.40;99.90
13409;DHT22;6775;49.574;11.170;2022-10-04T11:17:27;18.40;99.90
13409;DHT22;6775;49.574;11.170;2022-10-04T11:20:20;18.30;99.90
13409;DHT22;6775;49.574;11.170;2022-10-04T11:23:19;18.40;99.90
13409;DHT22;6775;49.574;11.170;2022-10-04T11:26:18;18.40;99.90
13409;DHT22;6775;49.574;11.170;2022-10-04T11:29:00;18.20;99.90
13409;DHT22;6775;49.574;11.170;2022-10-04T11:31:50;18.20;99.90
13409;DHT22;6775;49.574;11.170;2022-10-04T11:35:02;18.30;99.90
13409;DHT22;6775;49.574;11.170;2022-10-04T11:37:56;18.40;99.90
13409;DHT22;6775;49.574;11.170;2022-10-04T11:40:35;18.50;99.90
13409;DHT22;6775;49.574;11.170;2022-10-04T11:43:19;18.50;99.90
13409;DHT22;6775;49.574;11.170;2022-10-04T11:46:08;18.40;99.90
13409;DHT22;6775;49.574;11.170;2022-10-04T11:48:50;18.50;99.90
13409;DHT22;6775;49.574;11.170;2022-10-04T11:51:50;18.50;99.90
13409;DHT22;6775;49.574;11.170;2022-10-04T11:57:44;19.00;99.90
13409;DHT22;6775;49.574;11.170;2022-10-04T12:00:17;19.00;99.90
13409;DHT22;6775;49.574;11.170;2022-10-04T12:03:10;18.90;99.90
13409;DHT22;6775;49.574;11.170;2022-10-04T12:05:56;18.90;99.90
13409;DHT22;6775;49.574;11.170;2022-10-04T12:08:37;18.90;99.90
13409;DHT22;6775;49.574;11.170;2022-10-04T12:11:40;19.00;99.90
13409;DHT22;6775;49.574;11.170;2022-10-04T12:14:58;19.20;99.90
13409;DHT22;6775;49.574;11.170;2022-10-04T12:17:54;19.30;99.90
13409;DHT22;6775;49.574;11.170;2022-10-04T12:20:42;19.50;99.90
13409;DHT22;6775;49.574;11.170;2022-10-04T12:23:46;19.70;99.90
13409;DHT22;6775;49.574;11.170;2022-10-04T12:26:28;19.80;99.70
13409;DHT22;6775;49.574;11.170;2022-10-04T12:29:27;19.80;99.90
13409;DHT22;6775;49.574;11.170;2022-10-04T12:32:03;19.90;99.70
13409;DHT22;6775;49.574;11.170;2022-10-04T12:34:40;20.00;99.20
13409;DHT22;6775;49.574;11.170;2022-10-04T12:37:18;20.10;98.40
13409;DHT22;6775;49.574;11.170;2022-10-04T12:40:19;20.00;98.30
13409;DHT22;6775;49.574;11.170;2022-10-04T12:42:53;19.80;97.70
13409;DHT22;6775;49.574;11.170;2022-10-04T12:45:41;19.70;98.10
13409;DHT22;6775;49.574;11.170;2022-10-04T12:48:23;19.70;98.30
13409;DHT22;6775;49.574;11.170;2022-10-04T12:51:00;19.70;97.90
13409;DHT22;6775;49.574;11.170;2022-10-04T12:53:38;19.60;97.60
13409;DHT22;6775;49.574;11.170;2022-10-04T12:56:14;19.50;98.10
13409;DHT22;6775;49.574;11.170;2022-10-04T13:02:01;19.20;97.70
13409;DHT22;6775;49.574;11.170;2022-10-04T13:04:35;19.10;98.30
13409;DHT22;6775;49.574;11.170;2022-10-04T13:07:23;19.00;97.90
13409;DHT22;6775;49.574;11.170;2022-10-04T13:10:11;19.10;98.10
13409;DHT22;6775;49.574;11.170;2022-10-04T13:16:32;19.30;97.80
13409;DHT22;6775;49.574;11.170;2022-10-04T13:19:32;19.40;97.00
13409;DHT22;6775;49.574;11.170;2022-10-04T13:22:20;19.30;96.60
13409;DHT22;6775;49.574;11.170;2022-10-04T13:25:19;18.90;96.90
13409;DHT22;6775;49.574;11.170;2022-10-04T13:27:56;18.60;97.30
13409;DHT22;6775;49.574;11.170;2022-10-04T13:30:31;18.40;98.00
13409;DHT22;6775;49.574;11.170;2022-10-04T13:33:12;18.50;99.40
13409;DHT22;6775;49.574;11.170;2022-10-04T13:35:51;18.60;98.60
13409;DHT22;6775;49.574;11.170;2022-10-04T13:41:50;18.50;98.20
13409;DHT22;6775;49.574;11.170;2022-10-04T13:44:32;18.40;98.10
13409;DHT22;6775;49.574;11.170;2022-10-04T13:47:20;18.40;98.50
13409;DHT22;6775;49.574;11.170;2022-10-04T13:50:00;18.50;98.10
13409;DHT22;6775;49.574;11.170;2022-10-04T13:52:40;18.50;97.70
13409;DHT22;6775;49.574;11.170;2022-10-04T13:55:36;18.50;98.40
13409;DHT22;6775;49.574;11.170;2022-10-04T13:58:30;18.50;99.70
13409;DHT22;6775;49.574;11.170;2022-10-04T14:04:08;18.50;99.00
13409;DHT22;6775;49.574;11.170;2022-10-04T14:10:21;18.00;99.30
13409;DHT22;6775;49.574;11.170;2022-10-04T14:13:37;17.80;99.70
13409;DHT22;6775;49.574;11.170;2022-10-04T14:16:36;17.50;99.90
13409;DHT22;6775;49.574;11.170;2022-10-04T14:19:33;17.40;99.90
13409;DHT22;6775;49.574;11.170;2022-10-04T14:28:38;17.20;99.90
13409;DHT22;6775;49.574;11.170;2022-10-04T14:31:22;17.20;99.90
13409;DHT22;6775;49.574;11.170;2022-10-04T14:40:31;17.10;99.90
13409;DHT22;6775;49.574;11.170;2022-10-04T14:43:16;17.10;99.90
13409;DHT22;6775;49.574;11.170;2022-10-04T14:46:04;17.00;99.90
13409;DHT22;6775;49.574;11.170;2022-10-04T14:48:56;17.00;99.90
13409;DHT22;6775;49.574;11.170;2022-10-04T14:51:46;16.90;99.90
13409;DHT22;6775;49.574;11.170;2022-10-04T14:54:29;16.90;99.90
13409;DHT22;6775;49.574;11.170;2022-10-04T14:57:03;16.90;99.90
13409;DHT22;6775;49.574;11.170;2022-10-04T14:59:54;16.80;99.90
13409;DHT22;6775;49.574;11.170;2022-10-04T15:02:46;16.80;99.90
13409;DHT22;6775;49.574;11.170;2022-10-04T15:05:28;16.70;99.90
13409;DHT22;6775;49.574;11.170;2022-10-04T15:08:20;16.70;99.90
13409;DHT22;6775;49.574;11.170;2022-10-04T15:10:53;16.60;99.90
13409;DHT22;6775;49.574;11.170;2022-10-04T15:13:24;16.60;99.90
13409;DHT22;6775;49.574;11.170;2022-10-04T15:16:08;16.60;99.90
13409;DHT22;6775;49.574;11.170;2022-10-04T15:18:51;16.60;99.90
13409;DHT22;6775;49.574;11.170;2022-10-04T15:21:32;16.60;99.90
13409;DHT22;6775;49.574;11.170;2022-10-04T15:24:19;16.60;99.90
13409;DHT22;6775;49.574;11.170;2022-10-04T15:26:57;16.60;99.90
13409;DHT22;6775;49.574;11.170;2022-10-04T15:29:39;16.60;99.90
13409;DHT22;6775;49.574;11.170;2022-10-04T15:32:19;16.60;99.90
13409;DHT22;6775;49.574;11.170;2022-10-04T15:35:10;16.60;99.90
13409;DHT22;6775;49.574;11.170;2022-10-04T15:37:44;16.50;99.90
13409;DHT22;6775;49.574;11.170;2022-10-04T15:43:30;16.40;99.90
13409;DHT22;6775;49.574;11.170;2022-10-04T15:46:07;16.40;99.90
13409;DHT22;6775;49.574;11.170;2022-10-04T15:48:54;16.40;99.90
13409;DHT22;6775;49.574;11.170;2022-10-04T15:51:39;16.30;99.90
13409;DHT22;6775;49.574;11.170;2022-10-04T15:54:31;16.20;99.90
13409;DHT22;6775;49.574;11.170;2022-10-04T15:57:05;16.10;99.90
13409;DHT22;6775;49.574;11.170;2022-10-04T15:59:47;16.00;99.90
13409;DHT22;6775;49.574;11.170;2022-10-04T16:02:44;15.90;99.90
13409;DHT22;6775;49.574;11.170;2022-10-04T16:05:25;15.80;99.90
13409;DHT22;6775;49.574;11.170;2022-10-04T16:08:13;15.70;99.90
13409;DHT22;6775;49.574;11.170;2022-10-04T16:11:02;15.50;99.90
13409;DHT22;6775;49.574;11.170;2022-10-04T16:13:43;15.40;99.90
13409;DHT22;6775;49.574;11.170;2022-10-04T16:19:44;15.20;99.90
13409;DHT22;6775;49.574;11.170;2022-10-04T16:22:17;15.10;99.90
13409;DHT22;6775;49.574;11.170;2022-10-04T16:24:47;15.10;99.90
13409;DHT22;6775;49.574;11.170;2022-10-04T16:27:41;15.10;99.90
13409;DHT22;6775;49.574;11.170;2022-10-04T16:30:18;15.00;99.90
13409;DHT22;6775;49.574;11.170;2022-10-04T16:33:26;15.00;99.90
13409;DHT22;6775;49.574;11.170;2022-10-04T16:36:08;14.90;99.90
13409;DHT22;6775;49.574;11.170;2022-10-04T16:38:43;14.90;99.90
13409;DHT22;6775;49.574;11.170;2022-10-04T16:41:40;14.80;99.90
13409;DHT22;6775;49.574;11.170;2022-10-04T16:44:25;14.80;99.90
13409;DHT22;6775;49.574;11.170;2022-10-04T16:46:57;14.70;99.90
13409;DHT22;6775;49.574;11.170;2022-10-04T16:49:31;14.60;99.90
13409;DHT22;6775;49.574;11.170;2022-10-04T16:58:48;14.30;99.90
13409;DHT22;6775;49.574;11.170;2022-10-04T17:04:32;14.10;99.90
13409;DHT22;6775;49.574;11.170;2022-10-04T17:07:13;14.00;99.90
13409;DHT22;6775;49.574;11.170;2022-10-04T17:09:47;13.90;99.90
13409;DHT22;6775;49.574;11.170;2022-10-04T17:12:17;13.90;99.90
13409;DHT22;6775;49.574;11.170;2022-10-04T17:15:15;13.80;99.90
13409;DHT22;6775;49.574;11.170;2022-10-04T17:17:55;13.70;99.90
13409;DHT22;6775;49.574;11.170;2022-10-04T17:20:35;13.60;99.90
13409;DHT22;6775;49.574;11.170;2022-10-04T17:23:17;13.60;99.90
13409;DHT22;6775;49.574;11.170;2022-10-04T17:25:55;13.50;99.90
13409;DHT22;6775;49.574;11.170;2022-10-04T17:28:27;13.40;99.90
13409;DHT22;6775;49.574;11.170;2022-10-04T17:31:01;13.40;99.90
13409;DHT22;6775;49.574;11.170;2022-10-04T17:33:45;13.40;99.90
13409;DHT22;6775;49.574;11.170;2022-10-04T17:36:33;13.40;99.90
13409;DHT22;6775;49.574;11.170;2022-10-04T17:39:30;13.40;99.90
13409;DHT22;6775;49.574;11.170;2022-10-04T17:45:03;13.30;99.90
13409;DHT22;6775;49.574;11.170;2022-10-04T17:47:38;13.20;99.90
13409;DHT22;6775;49.574;11.170;2022-10-04T17:50:28;13.20;99.90
13409;DHT22;6775;49.574;11.170;2022-10-04T17:53:22;13.10;99.90
13409;DHT22;6775;49.574;11.170;2022-10-04T17:56:08;13.00;99.90
13409;DHT22;6775;49.574;11.170;2022-10-04T17:58:42;13.00;99.90
13409;DHT22;6775;49.574;11.170;2022-10-04T18:01:14;12.90;99.90
13409;DHT22;6775;49.574;11.170;2022-10-04T18:03:46;12.90;99.90
13409;DHT22;6775;49.574;11.170;2022-10-04T18:06:26;12.80;99.90
13409;DHT22;6775;49.574;11.170;2022-10-04T18:08:58;12.80;99.90
13409;DHT22;6775;49.574;11.170;2022-10-04T18:11:31;12.70;99.90
13409;DHT22;6775;49.574;11.170;2022-10-04T18:14:04;12.50;99.90
13409;DHT22;6775;49.574;11.170;2022-10-04T18:16:45;12.30;99.90
13409;DHT22;6775;49.574;11.170;2022-10-04T18:19:34;12.20;99.90
13409;DHT22;6775;49.574;11.170;2022-10-04T18:22:11;12.00;99.90
13409;DHT22;6775;49.574;11.170;2022-10-04T18:24:41;11.80;99.90
13409;DHT22;6775;49.574;11.170;2022-10-04T18:27:16;11.60;99.90
13409;DHT22;6775;49.574;11.170;2022-10-04T18:29:56;11.40;99.90
13409;DHT22;6775;49.574;11.170;2022-10-04T18:32:33;11.20;99.90
13409;DHT22;6775;49.574;11.170;2022-10-04T18:35:19;11.00;99.90